Zearing, Iowa
Current Conditions -  °F | °C
As of 4:53 AM on Thursday 27 Nov 2014 (Local Time) from KAMW Reporting Station
Clear Clear  
Wind Chill: -13°   Ceiling: Unl
Heat Index:   Visibility: 10mi
Dew Point: -3°   Wind: 15mph
Humidity: 70%   Direction: 340°NNW
Pressure: 30.48"   Gusts: NA
Location:  42.16°N, 93.3°W
Report Text: KAMW 271053Z AUTO 34013KT 10SM CLR M15/M19 A3048 RMK AO2 SLP336 T11501194 $
Loading
Personal Weather Stations






























Interactive Weather Map New forecast layout! Learn more

10-Day Weather Forecast

Advertisements
Track Severe Weather on mobile